createdAt,value
2019-03-21T00:00:35.273Z,10.77
2019-03-21T00:03:05.990Z,11.13
2019-03-21T00:05:38.111Z,11.33
2019-03-21T00:08:11.050Z,11.03
2019-03-21T00:11:46.321Z,10.90
2019-03-21T00:14:33.305Z,11.20
2019-03-21T00:17:04.899Z,12.80
2019-03-21T00:19:35.788Z,12.20
2019-03-21T00:22:07.162Z,12.80
2019-03-21T00:24:37.827Z,12.67
2019-03-21T00:27:08.501Z,13.40
2019-03-21T00:29:39.175Z,13.90
2019-03-21T00:32:10.187Z,13.13
2019-03-21T00:34:40.844Z,12.50
2019-03-21T00:37:11.504Z,13.60
2019-03-21T00:39:42.470Z,13.70
2019-03-21T00:42:13.431Z,12.80
2019-03-21T00:44:44.068Z,12.30
2019-03-21T00:47:14.813Z,13.43
2019-03-21T00:49:45.821Z,13.10
2019-03-21T00:52:18.003Z,13.20
2019-03-21T00:54:48.731Z,12.97
2019-03-21T00:57:19.420Z,12.40
2019-03-21T00:59:50.091Z,12.77
2019-03-21T01:02:20.760Z,13.10
2019-03-21T01:04:51.726Z,12.20
2019-03-21T01:07:22.466Z,12.40
2019-03-21T01:09:53.554Z,12.40
2019-03-21T01:12:24.316Z,14.03
2019-03-21T01:14:55.337Z,13.20
2019-03-21T01:17:25.982Z,13.67
2019-03-21T01:19:56.977Z,13.07
2019-03-21T01:22:27.894Z,14.53
2019-03-21T01:25:12.150Z,13.70
2019-03-21T01:27:43.091Z,13.43
2019-03-21T01:30:15.488Z,13.90
2019-03-21T01:33:05.442Z,14.17
2019-03-21T01:35:36.468Z,14.53
2019-03-21T01:38:07.141Z,14.87
2019-03-21T01:40:39.435Z,15.97
2019-03-21T01:43:10.192Z,14.50
2019-03-21T01:45:40.871Z,16.70
2019-03-21T01:48:11.517Z,16.87
2019-03-21T01:50:42.248Z,15.67
2019-03-21T01:53:12.920Z,17.40
2019-03-21T01:55:43.929Z,16.93
2019-03-21T01:58:14.604Z,17.40
2019-03-21T02:00:45.370Z,16.20
2019-03-21T02:03:16.013Z,16.93
2019-03-21T02:05:46.686Z,16.57
2019-03-21T02:08:17.369Z,17.20
2019-03-21T02:10:48.051Z,14.60
2019-03-21T02:13:18.969Z,15.53
2019-03-21T02:15:50.877Z,15.00
2019-03-21T02:18:21.538Z,15.53
2019-03-21T02:20:52.197Z,14.70
2019-03-21T02:23:23.283Z,15.17
2019-03-21T02:25:54.809Z,15.83
2019-03-21T02:28:25.443Z,14.43
2019-03-21T02:30:56.134Z,13.93
2019-03-21T02:33:30.756Z,15.13
2019-03-21T02:36:01.630Z,13.47
2019-03-21T02:38:32.307Z,14.43
2019-03-21T02:41:05.468Z,14.47
2019-03-21T02:43:36.279Z,15.57
2019-03-21T02:46:07.038Z,15.30
2019-03-21T02:48:38.016Z,16.17
2019-03-21T02:51:09.016Z,16.23
2019-03-21T02:53:40.199Z,16.03
2019-03-21T02:56:13.269Z,15.87
2019-03-21T02:58:43.919Z,16.83
2019-03-21T03:01:14.888Z,17.80
2019-03-21T03:03:45.850Z,16.53
2019-03-21T03:06:16.566Z,16.20
2019-03-21T03:08:47.287Z,16.97
2019-03-21T03:11:18.262Z,17.47
2019-03-21T03:13:50.135Z,18.50
2019-03-21T03:16:21.015Z,18.53
2019-03-21T03:18:51.936Z,19.60
2019-03-21T03:21:22.665Z,17.87
2019-03-21T03:23:53.344Z,19.90
2019-03-21T03:26:23.978Z,21.93
2019-03-21T03:28:54.669Z,21.60
2019-03-21T03:31:25.671Z,19.50
2019-03-21T03:33:56.652Z,19.50
2019-03-21T03:36:27.596Z,22.57
2019-03-21T03:38:58.549Z,23.00
2019-03-21T03:41:29.245Z,21.20
2019-03-21T03:44:00.185Z,21.27
2019-03-21T03:46:30.878Z,22.80
2019-03-21T03:49:01.612Z,22.60
2019-03-21T03:51:32.347Z,21.07
2019-03-21T03:54:03.269Z,22.50
2019-03-21T03:56:34.525Z,21.33
2019-03-21T03:59:05.342Z,24.50
2019-03-21T04:01:36.235Z,23.30
2019-03-21T04:04:06.985Z,23.73
2019-03-21T04:06:37.658Z,23.60
2019-03-21T04:09:09.722Z,25.00
2019-03-21T04:11:40.522Z,24.20
2019-03-21T04:14:12.026Z,24.10
2019-03-21T04:16:42.935Z,25.20
2019-03-21T04:19:13.640Z,25.90
2019-03-21T04:21:44.687Z,25.20
2019-03-21T04:24:15.332Z,28.37
2019-03-21T04:26:45.986Z,31.10
2019-03-21T04:29:16.646Z,31.50
2019-03-21T04:31:47.511Z,30.57
2019-03-21T04:34:18.202Z,32.07
2019-03-21T04:36:48.865Z,27.50
2019-03-21T04:39:19.831Z,30.73
2019-03-21T04:41:50.790Z,27.27
2019-03-21T04:44:21.528Z,28.30
2019-03-21T04:46:52.476Z,28.13
2019-03-21T04:49:23.113Z,28.57
2019-03-21T04:51:54.119Z,27.17
2019-03-21T04:54:25.082Z,27.60
2019-03-21T04:56:56.012Z,28.03
2019-03-21T04:59:26.970Z,29.00
2019-03-21T05:01:57.983Z,31.53
2019-03-21T05:04:29.167Z,29.30
2019-03-21T05:07:00.425Z,30.57
2019-03-21T05:09:31.119Z,28.93
2019-03-21T05:12:01.792Z,29.10
2019-03-21T05:14:32.443Z,32.23
2019-03-21T05:17:03.091Z,30.93
2019-03-21T05:19:33.820Z,34.73
2019-03-21T05:22:04.768Z,33.00
2019-03-21T05:24:35.769Z,30.87
2019-03-21T05:27:06.520Z,35.87
2019-03-21T05:29:37.211Z,36.70
2019-03-21T05:32:08.160Z,40.50
2019-03-21T05:34:38.813Z,38.77
2019-03-21T05:37:10.541Z,40.20
2019-03-21T05:39:41.275Z,40.07
2019-03-21T05:42:18.402Z,42.27
2019-03-21T05:44:49.099Z,43.70
2019-03-21T05:47:20.006Z,43.60
2019-03-21T05:49:50.692Z,42.90
2019-03-21T05:52:21.689Z,43.43
2019-03-21T05:54:52.914Z,47.20
2019-03-21T05:57:23.592Z,49.40
2019-03-21T05:59:54.233Z,51.00
2019-03-21T06:02:24.955Z,53.70
2019-03-21T06:04:56.140Z,54.90
2019-03-21T06:07:37.907Z,50.37
2019-03-21T06:10:11.869Z,48.50
2019-03-21T06:12:46.285Z,48.00
2019-03-21T06:15:21.621Z,49.77
2019-03-21T06:18:28.775Z,48.73
2019-03-21T06:21:16.717Z,47.30
2019-03-21T06:24:34.680Z,47.03
2019-03-21T06:27:33.724Z,43.90
2019-03-21T06:30:05.079Z,41.30
2019-03-21T06:32:36.103Z,42.73
2019-03-21T06:35:18.967Z,41.00
2019-03-21T06:37:49.608Z,41.20
2019-03-21T06:40:20.366Z,38.70
2019-03-21T06:42:51.308Z,41.00
2019-03-21T06:45:22.021Z,38.90
2019-03-21T06:47:53.323Z,35.30
2019-03-21T06:50:24.376Z,35.50
2019-03-21T06:52:55.378Z,32.43
2019-03-21T06:55:26.059Z,32.10
2019-03-21T06:57:57.099Z,33.50
2019-03-21T07:00:27.770Z,31.20
2019-03-21T07:02:58.441Z,30.43
2019-03-21T07:05:29.116Z,30.70
2019-03-21T07:07:59.766Z,29.40
2019-03-21T07:10:30.751Z,30.40
2019-03-21T07:13:01.781Z,30.30
2019-03-21T07:15:32.435Z,27.77
2019-03-21T07:18:03.989Z,29.93
2019-03-21T07:20:34.765Z,28.40
2019-03-21T07:23:05.677Z,27.13
2019-03-21T07:25:36.472Z,27.93
2019-03-21T07:28:07.543Z,28.00
2019-03-21T07:30:38.227Z,25.80
2019-03-21T07:33:09.509Z,27.20
2019-03-21T07:35:40.566Z,26.63
2019-03-21T07:38:11.708Z,26.77
2019-03-21T07:40:42.433Z,27.97
2019-03-21T07:43:13.088Z,26.90
2019-03-21T07:45:43.769Z,26.70
2019-03-21T07:48:14.682Z,26.27
2019-03-21T07:50:45.685Z,27.27
2019-03-21T07:53:16.733Z,28.07
2019-03-21T07:55:47.768Z,27.87
2019-03-21T07:58:18.410Z,27.43
2019-03-21T08:00:49.730Z,28.57
2019-03-21T08:03:20.742Z,30.47
2019-03-21T08:05:51.422Z,32.00
2019-03-21T08:08:22.419Z,31.00
2019-03-21T08:10:53.712Z,29.77
2019-03-21T08:13:24.359Z,29.17
2019-03-21T08:15:55.027Z,29.23
2019-03-21T08:18:25.715Z,28.23
2019-03-21T08:20:59.801Z,28.53
2019-03-21T08:23:28.771Z,28.93
2019-03-21T08:25:59.732Z,28.30
2019-03-21T08:28:49.640Z,28.20
2019-03-21T08:31:22.069Z,28.40
2019-03-21T08:33:52.749Z,28.93
2019-03-21T08:36:23.444Z,29.90
2019-03-21T08:38:54.102Z,28.93
2019-03-21T08:41:24.778Z,28.27
2019-03-21T08:43:55.426Z,28.83
2019-03-21T08:46:26.116Z,30.10
2019-03-21T08:48:57.106Z,27.70
2019-03-21T08:51:28.114Z,29.60
2019-03-21T08:53:58.793Z,29.20
2019-03-21T08:56:29.452Z,28.20
2019-03-21T08:59:00.480Z,28.70
2019-03-21T09:01:31.395Z,30.40
2019-03-21T09:04:02.123Z,29.97
2019-03-21T09:06:32.801Z,27.77
2019-03-21T09:09:04.470Z,28.00
2019-03-21T09:11:35.161Z,27.87
2019-03-21T09:14:05.871Z,27.53
2019-03-21T09:16:36.547Z,29.33
2019-03-21T09:19:07.300Z,28.33
2019-03-21T09:21:38.263Z,27.83
2019-03-21T09:24:08.933Z,29.50
2019-03-21T09:26:39.662Z,31.40
2019-03-21T09:29:10.316Z,31.03
2019-03-21T09:31:40.989Z,31.80
2019-03-21T09:34:11.697Z,33.40
2019-03-21T09:36:42.373Z,33.77
2019-03-21T09:39:13.083Z,34.47
2019-03-21T09:41:43.790Z,32.40
2019-03-21T09:44:23.444Z,32.47
2019-03-21T09:46:54.476Z,35.33
2019-03-21T09:49:25.261Z,34.70
2019-03-21T09:51:55.947Z,37.10
2019-03-21T09:54:26.771Z,35.67
2019-03-21T09:56:57.454Z,34.00
2019-03-21T09:59:28.082Z,34.43
2019-03-21T10:01:58.900Z,35.10
2019-03-21T10:04:29.915Z,36.20
2019-03-21T10:07:00.664Z,36.23
2019-03-21T10:09:31.703Z,35.63
2019-03-21T10:12:02.995Z,36.93
2019-03-21T10:14:33.661Z,38.90
2019-03-21T10:17:04.308Z,39.93
2019-03-21T10:19:34.945Z,36.37
2019-03-21T10:22:05.588Z,38.80
2019-03-21T10:24:36.318Z,39.60
2019-03-21T10:27:07.311Z,38.30
2019-03-21T10:29:38.084Z,38.17
2019-03-21T10:32:14.163Z,38.00
2019-03-21T10:34:41.439Z,37.23
2019-03-21T10:37:12.107Z,40.33
2019-03-21T10:39:42.788Z,40.90
2019-03-21T10:42:13.755Z,38.70
2019-03-21T10:44:44.402Z,37.20
2019-03-21T10:47:15.686Z,37.23
2019-03-21T10:49:46.727Z,38.90
2019-03-21T10:52:17.430Z,38.27
2019-03-21T10:54:48.407Z,39.87
2019-03-21T10:57:19.443Z,39.53
2019-03-21T10:59:50.063Z,38.53
2019-03-21T11:02:21.191Z,38.50
2019-03-21T11:04:51.829Z,39.30
2019-03-21T11:07:19.831Z,38.57
2019-03-21T11:09:50.860Z,42.60
2019-03-21T11:12:21.837Z,46.40
2019-03-21T11:14:52.512Z,46.73
2019-03-21T11:17:23.257Z,47.00
2019-03-21T11:19:53.895Z,42.97
2019-03-21T11:22:24.597Z,45.57
2019-03-21T11:24:55.531Z,46.13
2019-03-21T11:27:26.181Z,46.53
2019-03-21T11:29:56.830Z,44.97
2019-03-21T11:32:27.726Z,44.33
2019-03-21T11:34:58.424Z,50.70
2019-03-21T11:37:29.089Z,46.93
2019-03-21T11:40:00.166Z,49.30
2019-03-21T11:42:31.183Z,46.73
2019-03-21T11:45:01.841Z,43.67
2019-03-21T11:47:41.362Z,43.10
2019-03-21T11:50:05.509Z,44.87
2019-03-21T11:52:36.443Z,45.37
2019-03-21T11:55:08.307Z,45.83
2019-03-21T11:57:38.959Z,45.67
2019-03-21T12:00:09.905Z,48.67
2019-03-21T12:02:40.601Z,45.90
2019-03-21T12:05:11.982Z,48.23
2019-03-21T12:07:42.654Z,46.07
2019-03-21T12:10:13.885Z,49.40
2019-03-21T12:12:44.569Z,49.17
2019-03-21T12:15:15.451Z,44.83
2019-03-21T12:17:46.383Z,44.50
2019-03-21T12:20:46.566Z,46.83
2019-03-21T12:23:17.240Z,45.10
2019-03-21T12:25:47.958Z,47.30
2019-03-21T12:28:18.646Z,43.97
2019-03-21T12:30:49.678Z,44.67
2019-03-21T12:33:20.326Z,45.13
2019-03-21T12:35:50.965Z,43.37
2019-03-21T12:38:21.718Z,44.03
2019-03-21T12:40:52.627Z,44.23
2019-03-21T12:43:23.307Z,43.63
2019-03-21T12:45:53.939Z,43.80
2019-03-21T12:48:24.605Z,45.23
2019-03-21T12:50:55.299Z,43.63
2019-03-21T12:53:25.993Z,45.70
2019-03-21T12:55:57.041Z,42.53
2019-03-21T12:58:27.759Z,44.93
2019-03-21T13:00:58.461Z,44.10
2019-03-21T13:03:29.347Z,42.93
2019-03-21T13:06:00.042Z,41.80
2019-03-21T13:08:34.102Z,41.30
2019-03-21T13:11:03.669Z,40.37
2019-03-21T13:13:34.606Z,37.90
2019-03-21T13:16:05.315Z,40.97
2019-03-21T13:18:36.056Z,43.00
2019-03-21T13:21:06.726Z,41.60
2019-03-21T13:23:37.457Z,42.23
2019-03-21T13:26:08.106Z,40.20
2019-03-21T13:28:39.385Z,43.00
2019-03-21T13:31:10.062Z,40.47
2019-03-21T13:33:40.706Z,39.40
2019-03-21T13:36:13.786Z,39.03
2019-03-21T13:38:44.459Z,38.63
2019-03-21T13:41:15.161Z,37.83
2019-03-21T13:43:45.848Z,39.57
2019-03-21T13:46:16.536Z,40.67
2019-03-21T13:48:47.627Z,38.47
2019-03-21T13:51:18.263Z,38.07
2019-03-21T13:53:48.932Z,41.30
2019-03-21T13:56:19.955Z,39.70
2019-03-21T13:58:50.947Z,39.40
2019-03-21T14:01:21.908Z,38.23
2019-03-21T14:03:52.822Z,38.97
2019-03-21T14:06:23.459Z,38.40
2019-03-21T14:08:54.143Z,37.80
2019-03-21T14:11:24.784Z,40.00
2019-03-21T14:13:56.105Z,36.80
2019-03-21T14:16:27.104Z,39.10
2019-03-21T14:18:57.753Z,37.90
2019-03-21T14:21:28.416Z,38.23
2019-03-21T14:23:59.104Z,41.70
2019-03-21T14:26:30.034Z,42.90
2019-03-21T14:29:11.920Z,41.03
2019-03-21T14:31:33.075Z,41.47
2019-03-21T14:34:03.780Z,39.10
2019-03-21T14:36:34.462Z,37.10
2019-03-21T14:39:07.487Z,35.97
2019-03-21T14:41:38.504Z,34.67
2019-03-21T14:44:09.146Z,37.17
2019-03-21T14:46:39.867Z,35.57
2019-03-21T14:49:10.533Z,35.97
2019-03-21T14:51:41.241Z,37.23
2019-03-21T14:54:12.219Z,36.77
2019-03-21T14:56:43.028Z,39.20
2019-03-21T14:59:13.709Z,38.27
2019-03-21T15:01:44.395Z,37.87
2019-03-21T15:04:15.106Z,40.33
2019-03-21T15:06:46.023Z,40.37
2019-03-21T15:09:16.719Z,41.20
2019-03-21T15:11:47.475Z,40.10
2019-03-21T15:14:18.226Z,39.73
2019-03-21T15:16:48.923Z,40.50
2019-03-21T15:19:19.597Z,38.70
2019-03-21T15:21:50.259Z,38.07
2019-03-21T15:24:20.977Z,40.17
2019-03-21T15:26:51.649Z,37.50
2019-03-21T15:29:22.294Z,42.13
2019-03-21T15:31:53.507Z,40.87
2019-03-21T15:34:24.183Z,40.23
2019-03-21T15:36:54.919Z,40.57
2019-03-21T15:39:26.106Z,42.03
2019-03-21T15:41:56.776Z,42.20
2019-03-21T15:44:28.034Z,42.43
2019-03-21T15:46:58.796Z,43.10
2019-03-21T15:49:29.991Z,43.40
2019-03-21T15:52:00.656Z,43.27
2019-03-21T15:54:31.699Z,42.10
2019-03-21T15:57:02.653Z,41.77
2019-03-21T15:59:33.451Z,41.30
2019-03-21T16:02:04.570Z,40.17
2019-03-21T16:04:35.609Z,41.30
2019-03-21T16:07:06.283Z,43.30
2019-03-21T16:09:37.185Z,42.97
2019-03-21T16:12:08.196Z,39.37
2019-03-21T16:14:39.320Z,41.97
2019-03-21T16:17:10.023Z,43.40
2019-03-21T16:19:40.676Z,42.10
2019-03-21T16:22:11.444Z,41.63
2019-03-21T16:24:42.153Z,42.10
2019-03-21T16:27:12.795Z,42.67
2019-03-21T16:29:43.653Z,41.63
2019-03-21T16:32:14.328Z,44.40
2019-03-21T16:34:45.044Z,42.80
2019-03-21T16:37:16.042Z,43.30
2019-03-21T16:39:47.167Z,39.77
2019-03-21T16:42:18.231Z,42.23
2019-03-21T16:44:48.931Z,42.50
2019-03-21T16:47:19.645Z,41.77
2019-03-21T16:49:50.320Z,43.10
2019-03-21T16:52:21.047Z,42.07
2019-03-21T16:54:51.735Z,41.20
2019-03-21T16:57:22.471Z,47.27
2019-03-21T16:59:53.168Z,43.83
2019-03-21T17:02:23.862Z,45.93
2019-03-21T17:04:54.581Z,44.43
2019-03-21T17:07:25.272Z,48.47
2019-03-21T17:09:57.989Z,48.43
2019-03-21T17:12:28.951Z,48.03
2019-03-21T17:14:59.922Z,47.40
2019-03-21T17:17:30.867Z,47.90
2019-03-21T17:20:03.713Z,47.33
2019-03-21T17:22:34.418Z,49.30
2019-03-21T17:25:05.834Z,48.23
2019-03-21T17:27:36.526Z,47.70
2019-03-21T17:30:08.671Z,50.50
2019-03-21T17:32:39.338Z,47.30
2019-03-21T17:35:10.909Z,49.57
2019-03-21T17:37:41.579Z,47.53
2019-03-21T17:40:12.703Z,51.30
2019-03-21T17:42:43.428Z,48.37
2019-03-21T17:45:15.788Z,48.60
2019-03-21T17:47:46.499Z,49.63
2019-03-21T17:50:17.538Z,49.03
2019-03-21T17:52:48.292Z,46.00
2019-03-21T17:55:19.269Z,46.50
2019-03-21T17:57:50.118Z,45.90
2019-03-21T18:00:22.646Z,52.00
2019-03-21T18:02:54.238Z,48.77
2019-03-21T18:05:25.058Z,49.77
2019-03-21T18:07:55.797Z,48.27
2019-03-21T18:10:29.666Z,47.90
2019-03-21T18:13:00.867Z,46.63
2019-03-21T18:15:31.838Z,50.13
2019-03-21T18:18:03.026Z,51.13
2019-03-21T18:20:33.869Z,50.83
2019-03-21T18:23:04.652Z,49.47
2019-03-21T18:25:35.367Z,47.83
2019-03-21T18:28:08.796Z,49.03
2019-03-21T18:30:39.100Z,48.63
2019-03-21T18:33:10.180Z,50.80
2019-03-21T18:35:40.914Z,48.10
2019-03-21T18:38:12.303Z,49.17
2019-03-21T18:40:43.030Z,49.50
2019-03-21T18:43:13.704Z,47.57
2019-03-21T18:45:44.641Z,49.63
2019-03-21T18:48:15.315Z,50.97
2019-03-21T18:50:46.093Z,52.90
2019-03-21T18:53:16.830Z,50.30
2019-03-21T18:55:47.624Z,51.07
2019-03-21T18:58:18.275Z,55.80
2019-03-21T19:00:48.994Z,54.80
2019-03-21T19:03:19.998Z,54.63
2019-03-21T19:05:51.468Z,52.50
2019-03-21T19:08:22.166Z,53.10
2019-03-21T19:10:53.036Z,52.33
2019-03-21T19:13:23.737Z,52.60
2019-03-21T19:15:54.695Z,54.30
2019-03-21T19:18:25.679Z,50.70
2019-03-21T19:20:56.643Z,54.30
2019-03-21T19:23:27.313Z,49.13
2019-03-21T19:25:58.038Z,52.77
2019-03-21T19:28:28.718Z,50.63
2019-03-21T19:30:59.538Z,51.43
2019-03-21T19:33:30.251Z,53.13
2019-03-21T19:36:01.307Z,48.83
2019-03-21T19:38:32.099Z,49.40
2019-03-21T19:41:02.769Z,53.57
2019-03-21T19:43:33.510Z,52.77
2019-03-21T19:46:04.277Z,55.67
2019-03-21T19:48:35.254Z,63.80
2019-03-21T19:51:06.218Z,63.70
2019-03-21T19:53:37.264Z,64.53
2019-03-21T19:56:08.888Z,58.87
2019-03-21T19:58:39.724Z,61.30
2019-03-21T20:01:10.409Z,60.90
2019-03-21T20:03:41.649Z,58.40
2019-03-21T20:06:12.730Z,57.67
2019-03-21T20:08:43.455Z,57.47
2019-03-21T20:11:14.125Z,56.43
2019-03-21T20:13:44.801Z,56.63
2019-03-21T20:16:15.530Z,59.63
2019-03-21T20:18:46.830Z,56.97
2019-03-21T20:21:17.513Z,63.03
2019-03-21T20:23:48.219Z,61.40
2019-03-21T20:26:18.924Z,68.73
2019-03-21T20:28:50.005Z,61.50
2019-03-21T20:31:20.695Z,59.43
2019-03-21T20:33:51.394Z,61.80
2019-03-21T20:36:22.149Z,60.87
2019-03-21T20:38:53.124Z,62.80
2019-03-21T20:41:24.149Z,57.67
2019-03-21T20:43:55.166Z,58.27
2019-03-21T20:46:25.821Z,60.17
2019-03-21T20:48:53.879Z,57.00
2019-03-21T20:51:24.581Z,58.00
2019-03-21T20:53:55.353Z,58.80
2019-03-21T20:56:26.344Z,61.17
2019-03-21T20:58:57.095Z,57.70
2019-03-21T21:01:27.754Z,58.00
2019-03-21T21:03:58.523Z,49.73
2019-03-21T21:06:30.024Z,53.87
2019-03-21T21:09:00.696Z,54.00
2019-03-21T21:11:31.461Z,52.10
2019-03-21T21:14:02.186Z,51.13
2019-03-21T21:16:32.914Z,49.23
2019-03-21T21:19:03.567Z,51.10
2019-03-21T21:21:34.246Z,50.97
2019-03-21T21:24:05.152Z,48.37
2019-03-21T21:26:35.883Z,53.93
2019-03-21T21:29:07.416Z,51.33
2019-03-21T21:31:38.942Z,46.77
2019-03-21T21:34:10.017Z,50.07
2019-03-21T21:36:40.747Z,48.93
2019-03-21T21:39:11.535Z,50.23
2019-03-21T21:41:42.599Z,46.30
2019-03-21T21:44:13.659Z,45.53
2019-03-21T21:46:44.387Z,46.47
2019-03-21T21:49:15.384Z,48.23
2019-03-21T21:51:46.409Z,44.37
2019-03-21T21:54:17.818Z,43.60
2019-03-21T21:56:49.147Z,46.70
2019-03-21T21:59:20.214Z,42.13
2019-03-21T22:01:52.664Z,43.30
2019-03-21T22:04:23.561Z,44.13
2019-03-21T22:06:54.740Z,44.07
2019-03-21T22:09:26.058Z,45.27
2019-03-21T22:11:56.791Z,45.33
2019-03-21T22:14:27.767Z,51.47
2019-03-21T22:16:58.754Z,47.57
2019-03-21T22:19:29.516Z,46.43
2019-03-21T22:22:00.355Z,45.17
2019-03-21T22:24:31.547Z,47.03
2019-03-21T22:27:07.065Z,45.27
2019-03-21T22:29:37.958Z,43.37
2019-03-21T22:32:09.104Z,45.63
2019-03-21T22:34:40.405Z,46.30
2019-03-21T22:37:11.336Z,44.70
2019-03-21T22:39:42.275Z,45.70
2019-03-21T22:42:13.371Z,45.43
2019-03-21T22:44:44.204Z,43.57
2019-03-21T22:47:15.012Z,45.33
2019-03-21T22:49:46.106Z,41.77
2019-03-21T22:52:17.027Z,40.73
2019-03-21T22:54:47.964Z,43.93
2019-03-21T22:57:18.671Z,42.77
2019-03-21T22:59:49.762Z,42.83
2019-03-21T23:02:20.927Z,43.30
2019-03-21T23:04:51.859Z,45.20
2019-03-21T23:07:22.655Z,45.20
2019-03-21T23:09:53.334Z,49.80
2019-03-21T23:12:24.336Z,44.33
2019-03-21T23:14:55.069Z,46.20
2019-03-21T23:17:25.743Z,48.93
2019-03-21T23:19:56.440Z,51.20
2019-03-21T23:22:27.216Z,49.60
2019-03-21T23:24:57.894Z,50.77
2019-03-21T23:27:28.558Z,50.30
2019-03-21T23:29:59.269Z,55.67
2019-03-21T23:32:29.940Z,51.43
2019-03-21T23:35:00.978Z,49.63
2019-03-21T23:37:31.687Z,44.87
2019-03-21T23:40:02.618Z,48.37
2019-03-21T23:42:33.281Z,43.40
2019-03-21T23:45:04.198Z,44.40
2019-03-21T23:47:34.921Z,45.67
2019-03-21T23:50:06.702Z,45.03
2019-03-21T23:52:37.354Z,43.60
2019-03-21T23:55:08.489Z,42.20
2019-03-21T23:57:39.232Z,42.73
